createdAt,value
2022-10-23T00:01:44.077Z,11.59
2022-10-23T00:04:30.737Z,11.60
2022-10-23T00:07:17.462Z,11.60
2022-10-23T00:10:06.087Z,11.61
2022-10-23T00:12:53.745Z,11.75
2022-10-23T00:15:40.335Z,11.92
2022-10-23T00:18:28.748Z,11.90
2022-10-23T00:21:17.648Z,11.90
2022-10-23T00:24:04.582Z,11.83
2022-10-23T00:26:51.653Z,11.75
2022-10-23T00:29:38.189Z,11.86
2022-10-23T00:32:26.463Z,11.90
2022-10-23T00:35:15.723Z,11.91
2022-10-23T00:38:02.520Z,11.89
2022-10-23T00:43:58.567Z,11.80
2022-10-23T00:46:46.331Z,11.70
2022-10-23T00:49:34.601Z,11.63
2022-10-23T00:52:22.804Z,11.63
2022-10-23T00:55:10.098Z,11.61
2022-10-23T00:57:57.296Z,11.64
2022-10-23T01:00:47.775Z,11.65
2022-10-23T01:03:34.472Z,11.78
2022-10-23T01:06:31.760Z,11.88
2022-10-23T01:09:26.139Z,11.98
2022-10-23T01:12:22.463Z,12.07
2022-10-23T01:15:17.724Z,12.06
2022-10-23T01:18:08.805Z,12.12
2022-10-23T01:21:01.453Z,12.01
2022-10-23T01:24:11.133Z,12.33
2022-10-23T01:27:14.855Z,12.41
2022-10-23T01:30:07.079Z,12.45
2022-10-23T01:33:01.744Z,12.33
2022-10-23T01:35:53.654Z,12.25
2022-10-23T01:38:45.404Z,12.14
2022-10-23T01:41:43.419Z,12.18
2022-10-23T01:44:37.737Z,12.17
2022-10-23T01:47:31.285Z,12.20
2022-10-23T01:50:25.788Z,12.19
2022-10-23T01:53:20.907Z,12.17
2022-10-23T01:56:11.790Z,12.11
2022-10-23T01:59:02.784Z,12.09
2022-10-23T02:01:59.430Z,12.19
2022-10-23T02:04:57.010Z,12.12
2022-10-23T02:07:44.097Z,12.10
2022-10-23T02:10:41.488Z,12.20
2022-10-23T02:13:34.396Z,12.14
2022-10-23T02:16:30.256Z,12.21
2022-10-23T02:19:26.740Z,12.18
2022-10-23T02:22:28.388Z,12.31
2022-10-23T02:25:18.840Z,12.41
2022-10-23T02:28:13.555Z,12.25
2022-10-23T02:31:08.433Z,12.09
2022-10-23T02:33:55.508Z,12.11
2022-10-23T02:36:44.290Z,12.00
2022-10-23T02:39:31.312Z,11.99
2022-10-23T02:42:24.011Z,11.99
2022-10-23T02:45:15.985Z,11.89
2022-10-23T02:48:12.799Z,11.83
2022-10-23T02:51:07.408Z,11.76
2022-10-23T02:54:04.316Z,11.79
2022-10-23T02:57:01.201Z,11.72
2022-10-23T02:59:56.294Z,11.64
2022-10-23T03:02:47.726Z,11.59
2022-10-23T03:05:39.610Z,11.51
2022-10-23T03:08:26.990Z,11.54
2022-10-23T03:11:15.092Z,11.39
2022-10-23T03:14:01.854Z,11.32
2022-10-23T03:16:49.272Z,11.28
2022-10-23T03:19:36.003Z,11.30
2022-10-23T03:22:24.599Z,11.38
2022-10-23T03:25:11.449Z,11.28
2022-10-23T03:28:00.377Z,11.19
2022-10-23T03:30:46.918Z,11.21
2022-10-23T03:33:33.990Z,11.15
2022-10-23T03:36:29.034Z,11.06
2022-10-23T03:39:16.346Z,10.98
2022-10-23T03:42:04.541Z,10.95
2022-10-23T03:44:52.507Z,10.93
2022-10-23T03:47:41.504Z,11.04
2022-10-23T03:50:28.688Z,11.04
2022-10-23T03:53:15.653Z,10.96
2022-10-23T03:56:02.501Z,11.04
2022-10-23T03:58:49.658Z,10.98
2022-10-23T04:01:37.592Z,10.97
2022-10-23T04:04:24.311Z,10.96
2022-10-23T04:07:11.091Z,10.95
2022-10-23T04:09:58.131Z,10.88
2022-10-23T04:12:45.347Z,10.80
2022-10-23T04:15:32.024Z,10.74
2022-10-23T04:18:20.822Z,10.67
2022-10-23T04:21:07.452Z,10.62
2022-10-23T04:23:54.163Z,10.52
2022-10-23T04:26:42.263Z,10.49
2022-10-23T04:29:32.545Z,10.40
2022-10-23T04:32:19.029Z,10.39
2022-10-23T04:35:09.164Z,10.30
2022-10-23T04:37:55.752Z,10.25
2022-10-23T04:40:43.578Z,10.18
2022-10-23T04:43:30.339Z,10.14
2022-10-23T04:46:17.580Z,10.02
2022-10-23T04:49:07.517Z,9.99
2022-10-23T04:52:14.706Z,9.92
2022-10-23T04:55:20.987Z,9.90
2022-10-23T04:58:31.125Z,9.85
2022-10-23T05:01:17.786Z,9.81
2022-10-23T05:04:04.612Z,9.78
2022-10-23T05:06:55.515Z,9.73
2022-10-23T05:09:57.220Z,9.71
2022-10-23T05:12:56.221Z,9.65
2022-10-23T05:18:34.146Z,9.53
2022-10-23T05:21:26.528Z,9.59
2022-10-23T05:24:13.359Z,9.41
2022-10-23T05:27:08.945Z,9.35
2022-10-23T05:29:58.354Z,9.30
2022-10-23T05:32:47.986Z,9.30
2022-10-23T05:35:34.770Z,9.35
2022-10-23T05:38:21.392Z,9.29
2022-10-23T05:41:08.834Z,9.23
2022-10-23T05:43:57.081Z,9.19
2022-10-23T05:47:02.785Z,9.13
2022-10-23T05:50:21.841Z,9.16
2022-10-23T05:53:19.041Z,9.11
2022-10-23T05:56:25.263Z,9.12
2022-10-23T05:59:23.431Z,9.05
2022-10-23T06:02:29.282Z,8.97
2022-10-23T06:05:23.462Z,8.97
2022-10-23T06:08:29.118Z,8.93
2022-10-23T06:11:16.880Z,8.91
2022-10-23T06:14:11.757Z,8.96
2022-10-23T06:17:00.924Z,8.92
2022-10-23T06:19:47.625Z,8.85
2022-10-23T06:22:37.966Z,8.64
2022-10-23T06:25:39.753Z,8.72
2022-10-23T06:28:26.754Z,8.65
2022-10-23T06:31:16.345Z,8.59
2022-10-23T06:34:06.137Z,8.82
2022-10-23T06:36:53.135Z,8.87
2022-10-23T06:39:49.973Z,9.05
2022-10-23T06:42:39.666Z,9.22
2022-10-23T06:45:48.017Z,9.24
2022-10-23T06:48:34.787Z,9.36
2022-10-23T06:51:29.719Z,9.40
2022-10-23T06:54:17.043Z,9.47
2022-10-23T06:57:29.588Z,9.56
2022-10-23T07:00:16.546Z,9.78
2022-10-23T07:03:09.742Z,9.90
2022-10-23T07:05:56.381Z,9.94
2022-10-23T07:08:44.415Z,10.15
2022-10-23T07:11:54.443Z,10.32
2022-10-23T07:14:53.778Z,10.36
2022-10-23T07:17:41.506Z,10.40
2022-10-23T07:20:28.693Z,10.41
2022-10-23T07:23:16.401Z,10.67
2022-10-23T07:26:08.327Z,10.67
2022-10-23T07:28:56.117Z,10.77
2022-10-23T07:31:43.948Z,10.84
2022-10-23T07:34:57.091Z,10.96
2022-10-23T07:37:50.121Z,11.04
2022-10-23T07:40:37.775Z,11.11
2022-10-23T07:43:28.466Z,11.19
2022-10-23T07:46:15.233Z,11.26
2022-10-23T07:49:02.536Z,11.40
2022-10-23T07:51:51.417Z,11.48
2022-10-23T07:54:39.309Z,11.61
2022-10-23T07:57:41.725Z,11.60
2022-10-23T08:00:45.110Z,11.66
2022-10-23T08:03:42.641Z,11.69
2022-10-23T08:06:29.745Z,11.76
2022-10-23T08:09:18.037Z,11.79
2022-10-23T08:12:05.670Z,11.92
2022-10-23T08:14:52.117Z,11.94
2022-10-23T08:17:40.614Z,12.02
2022-10-23T08:20:39.804Z,12.11
2022-10-23T08:23:27.885Z,12.20
2022-10-23T08:26:14.569Z,12.25
2022-10-23T08:29:01.735Z,12.22
2022-10-23T08:31:49.505Z,12.27
2022-10-23T08:34:46.297Z,12.32
2022-10-23T08:37:33.142Z,12.44
2022-10-23T08:40:23.833Z,12.46
2022-10-23T08:43:35.594Z,12.80
2022-10-23T08:46:41.940Z,12.87
2022-10-23T08:49:44.338Z,12.90
2022-10-23T08:52:37.605Z,13.18
2022-10-23T08:55:28.527Z,13.26
2022-10-23T08:58:19.938Z,13.33
2022-10-23T09:01:34.630Z,13.38
2022-10-23T09:04:21.543Z,13.48
2022-10-23T09:07:19.527Z,13.51
2022-10-23T09:10:23.169Z,13.65
2022-10-23T09:13:36.000Z,13.82
2022-10-23T09:16:33.647Z,13.96
2022-10-23T09:19:26.422Z,14.06
2022-10-23T09:22:14.022Z,14.18
2022-10-23T09:25:00.850Z,14.30
2022-10-23T09:27:54.768Z,14.38
2022-10-23T09:30:44.118Z,14.34
2022-10-23T09:33:30.715Z,14.57
2022-10-23T09:36:23.573Z,14.56
2022-10-23T09:39:23.729Z,14.69
2022-10-23T09:42:23.214Z,14.79
2022-10-23T09:45:24.998Z,14.94
2022-10-23T09:48:15.083Z,15.06
2022-10-23T09:51:03.903Z,15.16
2022-10-23T09:53:53.490Z,15.14
2022-10-23T09:56:42.623Z,15.25
2022-10-23T09:59:31.932Z,15.41
2022-10-23T10:02:28.291Z,15.49
2022-10-23T10:05:37.232Z,15.63
2022-10-23T10:08:40.508Z,15.68
2022-10-23T10:11:38.543Z,15.81
2022-10-23T10:14:48.147Z,15.70
2022-10-23T10:17:44.487Z,15.73
2022-10-23T10:20:45.480Z,15.82
2022-10-23T10:23:41.033Z,16.05
2022-10-23T10:26:36.266Z,16.21
2022-10-23T10:29:36.161Z,16.22
2022-10-23T10:32:34.781Z,16.25
2022-10-23T10:35:29.903Z,16.43
2022-10-23T10:38:33.073Z,16.59
2022-10-23T10:41:38.936Z,16.59
2022-10-23T10:45:01.448Z,16.60
2022-10-23T10:48:03.830Z,16.63
2022-10-23T10:51:07.809Z,16.64
2022-10-23T10:54:17.152Z,16.67
2022-10-23T10:57:12.523Z,16.84
2022-10-23T11:00:06.571Z,16.77
2022-10-23T11:02:56.148Z,16.92
2022-10-23T11:05:45.974Z,16.90
2022-10-23T11:08:49.820Z,16.93
2022-10-23T11:11:44.855Z,17.01
2022-10-23T11:14:34.511Z,17.14
2022-10-23T11:17:27.131Z,17.09
2022-10-23T11:20:26.441Z,17.20
2022-10-23T11:23:45.948Z,17.24
2022-10-23T11:26:43.265Z,17.28
2022-10-23T11:30:24.040Z,17.20
2022-10-23T11:33:42.585Z,17.22
2022-10-23T11:36:44.124Z,17.36
2022-10-23T11:39:34.428Z,17.34
2022-10-23T11:42:33.204Z,17.57
2022-10-23T11:45:34.621Z,17.87
2022-10-23T11:48:25.039Z,17.76
2022-10-23T11:51:33.331Z,17.97
2022-10-23T11:54:27.302Z,17.99
2022-10-23T11:57:17.357Z,18.09
2022-10-23T12:00:04.841Z,18.11
2022-10-23T12:03:01.679Z,18.04
2022-10-23T12:05:48.419Z,17.95
2022-10-23T12:08:39.449Z,17.95
2022-10-23T12:11:42.457Z,18.05
2022-10-23T12:14:34.288Z,17.92
2022-10-23T12:17:31.620Z,17.93
2022-10-23T12:20:28.258Z,17.96
2022-10-23T12:23:47.325Z,17.86
2022-10-23T12:26:51.525Z,17.92
2022-10-23T12:29:53.808Z,17.93
2022-10-23T12:32:57.284Z,17.88
2022-10-23T12:36:08.062Z,17.83
2022-10-23T12:38:58.570Z,17.95
2022-10-23T12:41:45.056Z,17.92
2022-10-23T12:44:31.832Z,17.92
2022-10-23T12:47:20.154Z,17.98
2022-10-23T12:50:18.893Z,17.93
2022-10-23T12:53:08.316Z,17.88
2022-10-23T12:58:50.163Z,18.00
2022-10-23T13:01:39.362Z,17.92
2022-10-23T13:04:32.441Z,18.00
2022-10-23T13:07:20.994Z,17.92
2022-10-23T13:10:12.710Z,18.15
2022-10-23T13:13:07.967Z,18.09
2022-10-23T13:15:54.550Z,18.10
2022-10-23T13:18:42.379Z,18.10
2022-10-23T13:21:32.590Z,18.17
2022-10-23T13:24:22.634Z,18.08
2022-10-23T13:27:26.835Z,18.05
2022-10-23T13:30:29.492Z,18.04
2022-10-23T13:33:23.578Z,18.01
2022-10-23T13:36:24.108Z,17.94
2022-10-23T13:39:16.546Z,17.99
2022-10-23T13:42:13.557Z,17.87
2022-10-23T13:45:00.163Z,17.78
2022-10-23T13:47:47.076Z,17.71
2022-10-23T13:50:33.441Z,17.67
2022-10-23T13:53:20.277Z,17.67
2022-10-23T13:56:11.128Z,17.76
2022-10-23T13:58:57.711Z,17.84
2022-10-23T14:01:46.109Z,17.81
2022-10-23T14:04:37.946Z,17.97
2022-10-23T14:07:26.028Z,17.93
2022-10-23T14:10:12.818Z,18.06
2022-10-23T14:13:00.860Z,18.17
2022-10-23T14:15:54.467Z,18.09
2022-10-23T14:18:41.622Z,17.98
2022-10-23T14:21:28.725Z,18.01
2022-10-23T14:24:15.416Z,17.87
2022-10-23T14:27:02.346Z,17.70
2022-10-23T14:29:50.432Z,17.55
2022-10-23T14:32:37.261Z,17.48
2022-10-23T14:35:25.674Z,17.32
2022-10-23T14:38:12.409Z,17.23
2022-10-23T14:40:59.190Z,17.09
2022-10-23T14:43:46.243Z,16.99
2022-10-23T14:46:35.561Z,16.93
2022-10-23T14:49:22.366Z,16.95
2022-10-23T14:52:09.155Z,17.01
2022-10-23T14:54:56.274Z,16.73
2022-10-23T14:57:42.955Z,16.65
2022-10-23T15:00:31.153Z,16.84
2022-10-23T15:03:21.570Z,16.67
2022-10-23T15:06:09.062Z,16.59
2022-10-23T15:08:55.955Z,16.59
2022-10-23T15:11:42.580Z,16.59
2022-10-23T15:14:29.556Z,16.45
2022-10-23T15:17:17.241Z,16.27
2022-10-23T15:20:06.454Z,16.23
2022-10-23T15:22:53.183Z,16.13
2022-10-23T15:25:42.160Z,16.22
2022-10-23T15:28:29.546Z,16.14
2022-10-23T15:31:47.669Z,16.26
2022-10-23T15:34:34.766Z,16.21
2022-10-23T15:37:22.646Z,16.06
2022-10-23T15:40:10.378Z,16.02
2022-10-23T15:42:57.183Z,15.97
2022-10-23T15:45:44.131Z,15.91
2022-10-23T15:48:30.840Z,15.86
2022-10-23T15:51:24.477Z,15.81
2022-10-23T15:54:19.324Z,15.72
2022-10-23T15:57:06.561Z,15.66
2022-10-23T15:59:53.785Z,15.50
2022-10-23T16:02:41.389Z,15.49
2022-10-23T16:05:28.279Z,15.26
2022-10-23T16:08:15.940Z,15.12
2022-10-23T16:11:04.653Z,14.96
2022-10-23T16:13:52.741Z,14.92
2022-10-23T16:16:40.351Z,15.00
2022-10-23T16:19:28.195Z,15.02
2022-10-23T16:22:16.423Z,15.00
2022-10-23T16:25:03.851Z,14.90
2022-10-23T16:27:51.789Z,15.09
2022-10-23T16:30:42.142Z,15.21
2022-10-23T16:33:28.928Z,15.04
2022-10-23T16:36:15.697Z,15.11
2022-10-23T16:39:21.889Z,15.18
2022-10-23T16:42:27.785Z,15.08
2022-10-23T16:45:27.896Z,15.12
2022-10-23T16:48:14.962Z,15.16
2022-10-23T16:51:01.826Z,15.16
2022-10-23T16:53:49.015Z,15.17
2022-10-23T16:56:35.556Z,15.11
2022-10-23T16:59:22.262Z,15.12
2022-10-23T17:02:12.308Z,15.18
2022-10-23T17:04:59.257Z,15.28
2022-10-23T17:07:46.366Z,15.22
2022-10-23T17:10:33.414Z,15.35
2022-10-23T17:13:20.206Z,15.55
2022-10-23T17:16:09.817Z,15.64
2022-10-23T17:18:58.486Z,15.69
2022-10-23T17:21:45.031Z,15.63
2022-10-23T17:24:31.672Z,15.71
2022-10-23T17:27:19.430Z,15.79
2022-10-23T17:30:12.366Z,15.80
2022-10-23T17:33:01.807Z,15.88
2022-10-23T17:35:51.392Z,15.99
2022-10-23T17:38:38.480Z,15.90
2022-10-23T17:41:27.111Z,16.09
2022-10-23T17:44:13.877Z,16.01
2022-10-23T17:47:00.581Z,15.89
2022-10-23T17:49:47.133Z,15.98
2022-10-23T17:52:35.382Z,15.92
2022-10-23T17:55:22.188Z,15.98
2022-10-23T17:58:09.617Z,15.99
2022-10-23T18:00:56.224Z,15.97
2022-10-23T18:03:43.173Z,15.93
2022-10-23T18:06:33.068Z,16.03
2022-10-23T18:09:21.812Z,15.93
2022-10-23T18:12:08.668Z,15.89
2022-10-23T18:14:56.419Z,15.78
2022-10-23T18:17:43.326Z,15.70
2022-10-23T18:20:30.330Z,15.73
2022-10-23T18:23:17.099Z,15.66
2022-10-23T18:26:06.798Z,15.58
2022-10-23T18:28:57.023Z,15.58
2022-10-23T18:31:44.792Z,15.46
2022-10-23T18:34:31.605Z,15.39
2022-10-23T18:37:18.798Z,15.48
2022-10-23T18:40:06.187Z,15.36
2022-10-23T18:42:54.495Z,15.23
2022-10-23T18:45:43.704Z,15.47
2022-10-23T18:48:30.898Z,15.27
2022-10-23T18:51:20.342Z,15.19
2022-10-23T18:54:09.649Z,15.15
2022-10-23T18:56:57.103Z,15.11
2022-10-23T18:59:45.320Z,15.08
2022-10-23T19:02:33.170Z,15.08
2022-10-23T19:05:19.986Z,15.08
2022-10-23T19:08:09.381Z,15.06
2022-10-23T19:11:00.256Z,15.14
2022-10-23T19:13:48.760Z,15.06
2022-10-23T19:16:40.826Z,14.93
2022-10-23T19:19:32.027Z,14.89
2022-10-23T19:22:19.998Z,14.97
2022-10-23T19:25:13.033Z,14.90
2022-10-23T19:28:03.376Z,14.62
2022-10-23T19:30:50.618Z,14.61
2022-10-23T19:33:40.360Z,14.53
2022-10-23T19:36:29.815Z,14.51
2022-10-23T19:39:19.270Z,14.68
2022-10-23T19:42:08.916Z,14.61
2022-10-23T19:44:56.233Z,14.57
2022-10-23T19:47:44.211Z,14.48
2022-10-23T19:50:33.380Z,14.43
2022-10-23T19:53:20.944Z,14.56
2022-10-23T19:56:09.928Z,14.40
2022-10-23T19:58:57.625Z,14.50
2022-10-23T20:01:47.826Z,14.18
2022-10-23T20:04:37.070Z,14.09
2022-10-23T20:07:25.934Z,14.11
2022-10-23T20:10:13.341Z,14.25
2022-10-23T20:13:18.348Z,14.26
2022-10-23T20:16:06.832Z,14.26
2022-10-23T20:18:54.422Z,14.14
2022-10-23T20:21:42.415Z,14.28
2022-10-23T20:24:30.609Z,14.36
2022-10-23T20:27:18.612Z,14.18
2022-10-23T20:30:06.378Z,14.28
2022-10-23T20:32:53.167Z,14.22
2022-10-23T20:35:40.660Z,14.28
2022-10-23T20:38:27.286Z,14.15
2022-10-23T20:41:15.484Z,14.03
2022-10-23T20:44:02.142Z,13.95
2022-10-23T20:46:49.738Z,13.85
2022-10-23T20:49:36.710Z,13.68
2022-10-23T20:52:23.232Z,13.68
2022-10-23T20:55:10.898Z,13.53
2022-10-23T20:57:59.152Z,13.47
2022-10-23T21:00:45.855Z,13.40
2022-10-23T21:03:32.696Z,13.26
2022-10-23T21:06:22.724Z,13.42
2022-10-23T21:12:02.953Z,13.31
2022-10-23T21:14:50.646Z,13.30
2022-10-23T21:17:40.783Z,13.42
2022-10-23T21:20:27.262Z,13.36
2022-10-23T21:23:14.177Z,13.32
2022-10-23T21:26:06.186Z,13.36
2022-10-23T21:29:16.914Z,13.37
2022-10-23T21:32:02.924Z,13.38
2022-10-23T21:34:49.581Z,13.24
2022-10-23T21:37:36.338Z,13.18
2022-10-23T21:40:24.324Z,13.06
2022-10-23T21:43:11.338Z,13.05
2022-10-23T21:45:58.926Z,13.06
2022-10-23T21:48:48.376Z,13.12
2022-10-23T21:51:38.007Z,13.03
2022-10-23T21:54:24.484Z,13.05
2022-10-23T21:57:14.478Z,12.96
2022-10-23T22:00:01.435Z,13.07
2022-10-23T22:02:48.608Z,13.10
2022-10-23T22:05:36.676Z,13.16
2022-10-23T22:08:23.104Z,13.13
2022-10-23T22:11:09.921Z,13.29
2022-10-23T22:13:57.408Z,13.51
2022-10-23T22:16:44.220Z,13.64
2022-10-23T22:19:30.907Z,13.79
2022-10-23T22:22:19.055Z,13.86
2022-10-23T22:25:06.874Z,13.93
2022-10-23T22:27:53.625Z,14.13
2022-10-23T22:30:40.410Z,14.18
2022-10-23T22:33:27.284Z,14.18
2022-10-23T22:36:14.524Z,14.22
2022-10-23T22:39:03.595Z,14.28
2022-10-23T22:41:50.850Z,14.25
2022-10-23T22:44:37.544Z,14.23
2022-10-23T22:47:25.333Z,14.26
2022-10-23T22:50:12.340Z,14.27
2022-10-23T22:52:58.937Z,14.33
2022-10-23T22:55:47.041Z,14.28
2022-10-23T22:58:33.791Z,14.26
2022-10-23T23:01:23.569Z,14.37
2022-10-23T23:04:26.222Z,14.44
2022-10-23T23:07:16.334Z,14.56
2022-10-23T23:10:03.073Z,14.53
2022-10-23T23:12:53.043Z,14.56
2022-10-23T23:15:41.813Z,14.59
2022-10-23T23:18:28.960Z,14.65
2022-10-23T23:21:16.694Z,14.62
2022-10-23T23:24:03.685Z,14.64
2022-10-23T23:26:50.177Z,14.69
2022-10-23T23:29:38.230Z,14.59
2022-10-23T23:32:25.185Z,14.53
2022-10-23T23:35:12.093Z,14.41
2022-10-23T23:37:58.795Z,14.37
2022-10-23T23:40:54.863Z,14.25
2022-10-23T23:43:42.888Z,14.08
2022-10-23T23:46:31.095Z,14.03
2022-10-23T23:49:18.016Z,13.88
2022-10-23T23:52:04.799Z,14.03
2022-10-23T23:54:51.507Z,13.92
2022-10-23T23:57:38.549Z,13.84
